createdAt,value
2023-04-03T00:00:40.775Z,2.62
2023-04-03T00:03:44.187Z,2.49
2023-04-03T00:06:45.779Z,2.56
2023-04-03T00:09:47.378Z,2.45
2023-04-03T00:12:49.638Z,2.26
2023-04-03T00:15:53.027Z,2.40
2023-04-03T00:18:54.591Z,2.14
2023-04-03T00:21:56.259Z,2.27
2023-04-03T00:24:58.059Z,2.39
2023-04-03T00:27:59.657Z,2.34
2023-04-03T00:31:03.189Z,2.43
2023-04-03T00:34:04.861Z,2.45
2023-04-03T00:37:06.834Z,2.57
2023-04-03T00:40:09.104Z,2.58
2023-04-03T00:43:12.722Z,2.68
2023-04-03T00:46:15.675Z,2.52
2023-04-03T00:49:17.593Z,2.60
2023-04-03T00:52:23.263Z,2.49
2023-04-03T00:55:25.319Z,2.37
2023-04-03T00:58:30.204Z,2.49
2023-04-03T01:01:33.411Z,2.57
2023-04-03T01:04:36.653Z,2.61
2023-04-03T01:07:40.244Z,2.56
2023-04-03T01:10:42.203Z,2.53
2023-04-03T01:13:44.183Z,2.50
2023-04-03T01:16:53.677Z,2.34
2023-04-03T01:20:03.841Z,2.12
2023-04-03T01:23:11.775Z,2.30
2023-04-03T01:26:16.390Z,2.22
2023-04-03T01:29:18.097Z,2.33
2023-04-03T01:32:21.351Z,2.16
2023-04-03T01:35:27.298Z,2.34
2023-04-03T01:38:29.181Z,2.39
2023-04-03T01:41:31.606Z,2.38
2023-04-03T01:44:33.182Z,2.14
2023-04-03T01:47:36.993Z,2.09
2023-04-03T01:50:38.812Z,2.32
2023-04-03T01:53:40.618Z,2.20
2023-04-03T01:56:42.350Z,2.27
2023-04-03T01:59:43.921Z,2.35
2023-04-03T02:02:48.676Z,2.33
2023-04-03T02:05:50.659Z,2.18
2023-04-03T02:08:52.478Z,2.25
2023-04-03T02:11:54.261Z,2.38
2023-04-03T02:14:55.957Z,2.42
2023-04-03T02:17:58.926Z,2.46
2023-04-03T02:21:00.887Z,2.47
2023-04-03T02:24:02.471Z,2.29
2023-04-03T02:27:04.038Z,2.37
2023-04-03T02:30:07.857Z,2.36
2023-04-03T02:33:10.887Z,2.42
2023-04-03T02:36:12.724Z,2.30
2023-04-03T02:39:15.061Z,2.36
2023-04-03T02:42:16.909Z,2.46
2023-04-03T02:45:18.672Z,2.38
2023-04-03T02:48:21.807Z,2.31
2023-04-03T02:51:23.386Z,2.34
2023-04-03T02:54:25.148Z,2.46
2023-04-03T02:57:26.738Z,2.47
2023-04-03T03:00:28.362Z,2.52
2023-04-03T03:03:31.349Z,2.45
2023-04-03T03:06:35.426Z,2.34
2023-04-03T03:09:37.228Z,2.15
2023-04-03T03:12:38.881Z,2.15
2023-04-03T03:15:40.431Z,2.08
2023-04-03T03:18:44.843Z,2.26
2023-04-03T03:21:46.419Z,2.34
2023-04-03T03:24:48.166Z,2.27
2023-04-03T03:27:50.033Z,2.35
2023-04-03T03:30:53.975Z,2.31
2023-04-03T03:33:58.263Z,2.35
2023-04-03T03:37:00.055Z,2.38
2023-04-03T03:40:01.653Z,2.39
2023-04-03T03:43:03.729Z,2.45
2023-04-03T03:46:05.357Z,2.52
2023-04-03T03:49:09.470Z,2.52
2023-04-03T03:52:14.903Z,2.53
2023-04-03T03:55:16.624Z,2.45
2023-04-03T03:58:18.244Z,2.56
2023-04-03T04:01:20.099Z,2.61
2023-04-03T04:04:23.128Z,2.60
2023-04-03T04:07:24.826Z,2.30
2023-04-03T04:10:26.507Z,2.31
2023-04-03T04:13:28.051Z,2.34
2023-04-03T04:16:29.987Z,2.28
2023-04-03T04:19:33.122Z,2.31
2023-04-03T04:22:34.700Z,2.39
2023-04-03T04:25:36.496Z,2.43
2023-04-03T04:28:38.479Z,2.47
2023-04-03T04:31:42.856Z,2.53
2023-04-03T04:34:45.916Z,2.42
2023-04-03T04:37:47.457Z,2.45
2023-04-03T04:40:49.443Z,2.43
2023-04-03T04:43:51.485Z,2.38
2023-04-03T04:46:53.101Z,2.40
2023-04-03T04:49:56.082Z,2.21
2023-04-03T04:52:57.853Z,2.42
2023-04-03T04:55:59.416Z,2.33
2023-04-03T04:59:01.055Z,2.18
2023-04-03T05:02:02.692Z,2.26
2023-04-03T05:05:05.986Z,2.31
2023-04-03T05:08:08.857Z,2.37
2023-04-03T05:11:10.465Z,2.30
2023-04-03T05:14:11.995Z,2.31
2023-04-03T05:17:14.234Z,2.33
2023-04-03T05:20:17.330Z,2.32
2023-04-03T05:23:19.501Z,2.37
2023-04-03T05:26:21.243Z,2.36
2023-04-03T05:29:23.082Z,2.44
2023-04-03T05:32:25.238Z,2.17
2023-04-03T05:35:28.306Z,2.30
2023-04-03T05:38:29.982Z,2.37
2023-04-03T05:41:31.751Z,2.32
2023-04-03T05:44:35.456Z,2.34
2023-04-03T05:47:37.041Z,2.39
2023-04-03T05:50:40.036Z,2.45
2023-04-03T05:53:42.450Z,2.48
2023-04-03T05:56:44.392Z,2.51
2023-04-03T05:59:46.891Z,2.45
2023-04-03T06:02:48.576Z,2.55
2023-04-03T06:05:53.898Z,2.51
2023-04-03T06:08:55.466Z,2.46
2023-04-03T06:11:57.518Z,2.57
2023-04-03T06:14:59.122Z,2.58
2023-04-03T06:18:01.953Z,2.61
2023-04-03T06:21:05.470Z,2.62
2023-04-03T06:24:07.706Z,2.73
2023-04-03T06:27:11.842Z,2.75
2023-04-03T06:30:14.174Z,2.78
2023-04-03T06:33:16.373Z,2.74
2023-04-03T06:36:19.950Z,2.72
2023-04-03T06:39:22.447Z,2.81
2023-04-03T06:42:24.374Z,2.73
2023-04-03T06:45:26.302Z,2.74
2023-04-03T06:48:28.468Z,2.74
2023-04-03T06:51:31.691Z,2.78
2023-04-03T06:54:33.766Z,2.82
2023-04-03T06:57:35.330Z,2.84
2023-04-03T07:00:36.892Z,2.82
2023-04-03T07:03:39.069Z,2.85
2023-04-03T07:06:42.060Z,2.96
2023-04-03T07:09:45.126Z,2.86
2023-04-03T07:12:48.494Z,2.94
2023-04-03T07:15:50.213Z,2.85
2023-04-03T07:18:51.919Z,2.89
2023-04-03T07:21:55.236Z,2.93
2023-04-03T07:24:56.811Z,2.69
2023-04-03T07:27:58.954Z,2.44
2023-04-03T07:31:01.307Z,2.42
2023-04-03T07:34:03.085Z,2.53
2023-04-03T07:37:06.302Z,2.55
2023-04-03T07:40:09.470Z,2.62
2023-04-03T07:43:11.233Z,2.75
2023-04-03T07:46:13.249Z,2.78
2023-04-03T07:49:15.353Z,2.85
2023-04-03T07:52:18.555Z,2.69
2023-04-03T07:55:20.190Z,2.79
2023-04-03T07:58:22.194Z,2.68
2023-04-03T08:01:23.841Z,2.73
2023-04-03T08:04:25.561Z,2.85
2023-04-03T08:07:29.636Z,2.73
2023-04-03T08:10:31.437Z,2.78
2023-04-03T08:13:33.641Z,2.82
2023-04-03T08:16:35.206Z,2.88
2023-04-03T08:19:37.082Z,2.82
2023-04-03T08:22:40.330Z,2.56
2023-04-03T08:25:42.878Z,2.40
2023-04-03T08:28:45.014Z,2.56
2023-04-03T08:31:46.725Z,2.84
2023-04-03T08:34:48.495Z,3.16
2023-04-03T08:37:52.738Z,3.18
2023-04-03T08:41:00.981Z,3.10
2023-04-03T08:44:16.209Z,2.46
2023-04-03T08:47:24.203Z,2.24
2023-04-03T08:50:29.276Z,2.13
2023-04-03T08:53:35.190Z,2.27
2023-04-03T08:56:37.151Z,2.02
2023-04-03T08:59:39.460Z,2.17
2023-04-03T09:02:44.307Z,2.32
2023-04-03T09:05:48.247Z,2.09
2023-04-03T09:08:54.717Z,1.61
2023-04-03T09:11:59.894Z,1.88
2023-04-03T09:15:03.728Z,1.66
2023-04-03T09:18:07.333Z,1.80
2023-04-03T09:21:14.680Z,1.79
2023-04-03T09:24:19.048Z,1.65
2023-04-03T09:27:21.037Z,1.52
2023-04-03T09:30:23.901Z,1.47
2023-04-03T09:33:25.536Z,1.60
2023-04-03T09:36:43.317Z,1.72
2023-04-03T09:39:53.262Z,1.71
2023-04-03T09:43:01.372Z,2.02
2023-04-03T09:46:22.449Z,1.85
2023-04-03T09:49:24.140Z,1.95
2023-04-03T09:52:27.202Z,2.01
2023-04-03T09:55:30.559Z,2.02
2023-04-03T09:58:46.819Z,1.94
2023-04-03T10:02:00.995Z,2.27
2023-04-03T10:08:11.553Z,2.23
2023-04-03T10:11:16.253Z,2.23
2023-04-03T10:14:18.308Z,2.11
2023-04-03T10:17:25.692Z,2.37
2023-04-03T10:20:30.869Z,2.20
2023-04-03T10:23:34.737Z,2.18
2023-04-03T10:26:40.475Z,2.15
2023-04-03T10:29:46.846Z,2.24
2023-04-03T10:32:56.029Z,2.27
2023-04-03T10:36:03.517Z,2.15
2023-04-03T10:39:12.169Z,1.99
2023-04-03T10:42:19.382Z,1.98
2023-04-03T10:45:25.239Z,1.98
2023-04-03T10:48:44.635Z,1.95
2023-04-03T10:51:49.842Z,2.17
2023-04-03T10:54:57.970Z,2.28
2023-04-03T10:58:02.388Z,2.50
2023-04-03T11:01:07.637Z,2.59
2023-04-03T11:04:11.100Z,2.77
2023-04-03T11:07:18.355Z,2.84
2023-04-03T11:10:23.516Z,3.00
2023-04-03T11:13:29.092Z,3.12
2023-04-03T11:16:40.393Z,3.10
2023-04-03T11:19:48.650Z,3.09
2023-04-03T11:22:52.760Z,3.25
2023-04-03T11:25:56.791Z,3.44
2023-04-03T11:29:02.145Z,3.57
2023-04-03T11:32:10.249Z,3.52
2023-04-03T11:35:12.293Z,3.51
2023-04-03T11:38:18.509Z,3.70
2023-04-03T11:41:25.803Z,3.96
2023-04-03T11:44:33.471Z,4.07
2023-04-03T11:47:50.228Z,3.95
2023-04-03T11:50:52.522Z,3.84
2023-04-03T11:53:54.362Z,3.86
2023-04-03T11:56:56.292Z,3.81
2023-04-03T11:59:59.300Z,3.59
2023-04-03T12:03:01.555Z,3.83
2023-04-03T12:06:18.224Z,4.05
2023-04-03T12:09:27.740Z,4.11
2023-04-03T12:12:31.170Z,4.08
2023-04-03T12:15:50.592Z,4.07
2023-04-03T12:19:04.729Z,4.12
2023-04-03T12:22:09.367Z,4.13
2023-04-03T12:25:25.936Z,4.19
2023-04-03T12:28:27.953Z,4.24
2023-04-03T12:31:38.365Z,4.30
2023-04-03T12:34:54.173Z,4.26
2023-04-03T12:38:11.457Z,4.38
2023-04-03T12:41:19.201Z,4.40
2023-04-03T12:44:28.368Z,4.51
2023-04-03T12:47:32.777Z,4.58
2023-04-03T12:50:38.174Z,4.47
2023-04-03T12:53:39.880Z,4.65
2023-04-03T12:56:41.581Z,4.62
2023-04-03T12:59:43.513Z,4.60
2023-04-03T13:02:45.787Z,4.52
2023-04-03T13:05:48.819Z,4.29
2023-04-03T13:08:51.647Z,4.19
2023-04-03T13:11:56.560Z,4.15
2023-04-03T13:14:59.559Z,4.29
2023-04-03T13:18:01.346Z,4.21
2023-04-03T13:21:07.492Z,4.13
2023-04-03T13:24:15.806Z,3.99
2023-04-03T13:27:18.220Z,4.19
2023-04-03T13:30:25.679Z,4.05
2023-04-03T13:33:29.346Z,3.77
2023-04-03T13:36:34.581Z,3.87
2023-04-03T13:39:36.985Z,3.70
2023-04-03T13:42:41.452Z,3.75
2023-04-03T13:45:55.051Z,3.98
2023-04-03T13:48:57.989Z,3.87
2023-04-03T13:52:07.216Z,3.72
2023-04-03T13:55:24.727Z,3.41
2023-04-03T13:58:29.216Z,3.18
2023-04-03T14:01:35.901Z,3.13
2023-04-03T14:04:47.287Z,2.91
2023-04-03T14:07:51.648Z,3.11
2023-04-03T14:10:53.700Z,3.34
2023-04-03T14:14:04.182Z,3.41
2023-04-03T14:17:24.437Z,3.50
2023-04-03T14:20:28.231Z,3.31
2023-04-03T14:23:33.255Z,3.47
2023-04-03T14:26:35.230Z,3.42
2023-04-03T14:29:37.212Z,3.74
2023-04-03T14:32:38.950Z,3.91
2023-04-03T14:35:40.572Z,4.05
2023-04-03T14:38:44.083Z,3.90
2023-04-03T14:41:46.354Z,3.95
2023-04-03T14:44:48.223Z,3.73
2023-04-03T14:47:51.755Z,3.84
2023-04-03T14:51:05.126Z,3.99
2023-04-03T14:54:13.828Z,3.86
2023-04-03T14:57:16.496Z,3.87
2023-04-03T15:00:19.432Z,3.84
2023-04-03T15:03:22.241Z,3.58
2023-04-03T15:06:24.378Z,3.38
2023-04-03T15:09:28.588Z,3.67
2023-04-03T15:12:30.173Z,3.58
2023-04-03T15:15:32.001Z,3.84
2023-04-03T15:18:36.926Z,3.73
2023-04-03T15:21:38.554Z,3.73
2023-04-03T15:24:41.557Z,4.06
2023-04-03T15:27:43.427Z,3.97
2023-04-03T15:30:45.118Z,3.82
2023-04-03T15:33:46.640Z,3.55
2023-04-03T15:36:48.536Z,3.95
2023-04-03T15:39:51.869Z,4.40
2023-04-03T15:42:54.470Z,4.82
2023-04-03T15:45:57.555Z,4.63
2023-04-03T15:48:59.191Z,4.24
2023-04-03T15:52:00.768Z,4.49
2023-04-03T15:55:04.138Z,4.52
2023-04-03T15:58:06.336Z,4.10
2023-04-03T16:01:10.132Z,3.85
2023-04-03T16:04:12.092Z,3.93
2023-04-03T16:07:14.417Z,3.59
2023-04-03T16:10:18.276Z,3.50
2023-04-03T16:13:22.394Z,3.37
2023-04-03T16:16:24.536Z,3.56
2023-04-03T16:19:26.515Z,3.78
2023-04-03T16:22:28.864Z,3.39
2023-04-03T16:25:31.863Z,3.48
2023-04-03T16:28:34.537Z,3.65
2023-04-03T16:31:36.153Z,3.41
2023-04-03T16:34:37.760Z,3.57
2023-04-03T16:37:40.669Z,3.68
2023-04-03T16:40:43.757Z,3.36
2023-04-03T16:43:45.636Z,3.28
2023-04-03T16:46:48.287Z,3.44
2023-04-03T16:49:50.447Z,3.33
2023-04-03T16:52:53.072Z,3.47
2023-04-03T16:55:58.013Z,3.41
2023-04-03T16:58:59.628Z,3.23
2023-04-03T17:02:01.169Z,3.25
2023-04-03T17:05:02.794Z,3.11
2023-04-03T17:08:04.406Z,3.01
2023-04-03T17:11:07.396Z,3.27
2023-04-03T17:14:09.047Z,3.03
2023-04-03T17:17:10.836Z,3.22
2023-04-03T17:20:13.126Z,3.11
2023-04-03T17:23:15.184Z,3.11
2023-04-03T17:26:18.556Z,3.11
2023-04-03T17:29:20.806Z,3.16
2023-04-03T17:32:23.238Z,3.03
2023-04-03T17:35:25.022Z,2.93
2023-04-03T17:38:26.847Z,2.56
2023-04-03T17:41:29.811Z,2.52
2023-04-03T17:44:42.669Z,2.72
2023-04-03T17:47:44.851Z,2.63
2023-04-03T17:50:46.910Z,2.55
2023-04-03T17:53:49.304Z,2.42
2023-04-03T17:56:53.126Z,2.41
2023-04-03T17:59:55.318Z,2.45
2023-04-03T18:02:57.112Z,2.32
2023-04-03T18:06:03.295Z,2.31
2023-04-03T18:09:08.397Z,2.48
2023-04-03T18:12:13.702Z,1.98
2023-04-03T18:15:17.072Z,2.16
2023-04-03T18:18:19.114Z,2.16
2023-04-03T18:21:21.022Z,2.21
2023-04-03T18:24:23.666Z,2.11
2023-04-03T18:27:27.656Z,2.16
2023-04-03T18:30:29.739Z,2.12
2023-04-03T18:33:32.850Z,2.23
2023-04-03T18:36:37.472Z,2.22
2023-04-03T18:39:39.780Z,2.24
2023-04-03T18:42:43.777Z,2.21
2023-04-03T18:45:48.015Z,2.22
2023-04-03T18:48:50.664Z,2.21
2023-04-03T18:51:53.600Z,2.25
2023-04-03T18:54:55.880Z,2.26
2023-04-03T18:58:00.898Z,2.15
2023-04-03T19:01:03.328Z,2.11
2023-04-03T19:04:06.757Z,1.98
2023-04-03T19:07:10.311Z,1.90
2023-04-03T19:10:12.916Z,1.79
2023-04-03T19:13:18.832Z,1.60
2023-04-03T19:16:21.338Z,1.76
2023-04-03T19:19:23.509Z,1.54
2023-04-03T19:22:26.249Z,1.66
2023-04-03T19:25:28.618Z,1.60
2023-04-03T19:28:32.115Z,1.50
2023-04-03T19:31:34.941Z,1.58
2023-04-03T19:34:37.299Z,1.49
2023-04-03T19:37:40.973Z,1.53
2023-04-03T19:40:43.877Z,1.42
2023-04-03T19:43:50.371Z,1.31
2023-04-03T19:46:53.431Z,1.23
2023-04-03T19:49:56.402Z,1.30
2023-04-03T19:52:58.592Z,1.06
2023-04-03T19:56:01.590Z,1.04
2023-04-03T19:59:05.536Z,1.26
2023-04-03T20:02:08.152Z,1.05
2023-04-03T20:05:10.898Z,0.92
2023-04-03T20:08:14.082Z,1.03
2023-04-03T20:11:17.347Z,1.01
2023-04-03T20:14:20.703Z,1.05
2023-04-03T20:17:22.491Z,1.25
2023-04-03T20:20:25.537Z,1.36
2023-04-03T20:23:27.612Z,1.40
2023-04-03T20:26:30.575Z,1.40
2023-04-03T20:29:35.620Z,1.28
2023-04-03T20:32:38.917Z,1.33
2023-04-03T20:35:41.058Z,1.42
2023-04-03T20:38:43.474Z,1.25
2023-04-03T20:41:45.317Z,1.30
2023-04-03T20:44:49.312Z,1.42
2023-04-03T20:47:54.087Z,1.48
2023-04-03T20:50:56.154Z,1.40
2023-04-03T20:53:59.996Z,1.50
2023-04-03T20:57:01.935Z,1.54
2023-04-03T21:00:05.694Z,1.57
2023-04-03T21:03:07.321Z,1.35
2023-04-03T21:06:27.571Z,1.24
2023-04-03T21:09:47.865Z,1.29
2023-04-03T21:13:08.382Z,1.19
2023-04-03T21:16:10.167Z,1.22
2023-04-03T21:19:14.780Z,1.18
2023-04-03T21:22:16.432Z,1.11
2023-04-03T21:25:18.213Z,1.21
2023-04-03T21:28:19.778Z,0.90
2023-04-03T21:31:22.102Z,0.91
2023-04-03T21:34:26.051Z,0.90
2023-04-03T21:37:27.719Z,1.05
2023-04-03T21:40:29.251Z,1.01
2023-04-03T21:43:30.855Z,1.06
2023-04-03T21:46:32.498Z,1.17
2023-04-03T21:49:37.067Z,1.05
2023-04-03T21:52:38.707Z,1.01
2023-04-03T21:55:40.365Z,1.01
2023-04-03T21:58:42.768Z,0.97
2023-04-03T22:01:44.701Z,1.01
2023-04-03T22:04:50.443Z,0.88
2023-04-03T22:07:51.997Z,0.79
2023-04-03T22:10:59.309Z,0.71
2023-04-03T22:14:01.085Z,0.75
2023-04-03T22:17:03.142Z,0.80
2023-04-03T22:20:07.931Z,0.87
2023-04-03T22:23:09.502Z,0.87
2023-04-03T22:26:13.014Z,0.90
2023-04-03T22:29:14.667Z,0.53
2023-04-03T22:32:17.004Z,0.69
2023-04-03T22:35:20.474Z,0.54
2023-04-03T22:38:22.334Z,0.53
2023-04-03T22:41:24.399Z,0.50
2023-04-03T22:44:29.681Z,0.54
2023-04-03T22:47:33.805Z,0.61
2023-04-03T22:50:36.798Z,0.71
2023-04-03T22:53:38.365Z,0.68
2023-04-03T22:56:40.418Z,0.58
2023-04-03T22:59:42.090Z,0.59
2023-04-03T23:02:43.939Z,0.74
2023-04-03T23:05:46.953Z,0.85
2023-04-03T23:08:48.594Z,0.89
2023-04-03T23:11:50.612Z,0.89
2023-04-03T23:14:52.332Z,0.66
2023-04-03T23:17:53.876Z,0.70
2023-04-03T23:20:58.563Z,0.57
2023-04-03T23:24:00.154Z,0.54
2023-04-03T23:27:02.347Z,0.65
2023-04-03T23:30:04.342Z,0.70
2023-04-03T23:33:07.091Z,0.75
2023-04-03T23:36:11.137Z,0.75
2023-04-03T23:39:12.774Z,0.83
2023-04-03T23:42:14.608Z,0.76
2023-04-03T23:45:16.351Z,0.70
2023-04-03T23:48:18.150Z,0.57
2023-04-03T23:51:21.132Z,0.47
2023-04-03T23:54:22.791Z,0.27
2023-04-03T23:57:24.662Z,0.22
